Archidona, Spain
Current Conditions -  °F | °C
As of 12:30 PM on Thursday 18 Dec 2014 (Local Time) from LEMG Reporting Station
Clear Clear  
Wind Chill: 66°   Ceiling: Unl
Heat Index: 66°   Visibility: 6mi
Dew Point: 45°   Wind: 10mph
Humidity: 46%   Direction: 260°W
Pressure: 30.27"   Gusts: NA
Location:  37.1°N, 4.39°W
Report Text: LEMG 181130Z 26009KT 210V290 CAVOK 19/07 Q1025 NOSIG
Loading
Personal Weather Stations






























Interactive Weather Map New forecast layout! Learn more

10-Day Weather Forecast

Advertisements
Track Severe Weather on mobile